Hangaard, Minnesota
Current Conditions -  °F | °C
As of 8:15 AM on Sunday 21 Dec 2014 (Local Time) from KFSE Reporting Station
Haze Haze  
Wind Chill: 17°   Ceiling: 600
Heat Index: 28°   Visibility: 5mi
Dew Point: 27°   Wind: 15mph
Humidity: 93%   Direction: 170°S
Pressure: 29.73"   Gusts: NA
Location:  47.8469°N, 95.4815°W
Report Text: KFSE 211415Z AUTO 17013KT 5SM BR OVC006 M02/M03 A2973 RMK AO2
Loading
Personal Weather Stations






























Interactive Weather Map New forecast layout! Learn more

10-Day Weather Forecast

Advertisements
Track Severe Weather on mobile